• Join FlightAware (Why Join?)
  • Login
  • US Flag 
10:16AM EST


 

Airport Tracker/Info


-or-


 

Live Flight TrackerFlight Track Log ✈ N357FE ✈ 18-Apr-2013 ✈ KMEM - KSAN

Flight Track Log - Related Links

Times and Time Zones

All times are in EDT time to prevent confusion due to time zone crossing. See the N357FE flight status page for this flight to view local times or setup timezone preferences in your user account.

Time Position Orientation Groundspeed Altitude Reporting Facility
EDT Latitude Longitude Course Direction KTS MPH feet Rate Location/Type
05:07AM 34.9303 -90.3089 258° West 292 336 10,600  Level Memphis Center
05:08AM 34.9557 -90.6193 244° Southwest  Level FlightAware Approximate
05:08AM 34.9217 -90.4178 265° West 312 359 12,000  Level Memphis Center
05:09AM 34.9095 -90.7347 244° Southwest  Level FlightAware Approximate
05:09AM 34.9133 -90.5369 265° West 343 395 13,100  Level Memphis Center
05:10AM 34.8779 -90.8551 260° West  Level FlightAware Approximate
05:10AM 34.9028 -90.6761 265° West 369 425 14,600  Level Memphis Center
05:11AM 34.8598 -90.9815 260° West  Level FlightAware Approximate
05:11AM 34.8939 -90.8078 265° West 386 444 16,200  Level Memphis Center
05:12AM 34.8399 -91.1075 258° West  Level FlightAware Approximate
05:12AM 34.8747 -90.9342 260° West 386 444 17,800  Level Memphis Center
05:13AM 34.8553 -91.0683 260° West 391 450 19,500 1,500 Climbing Memphis Center
05:14AM 34.8314 -91.2022 258° West 397 457 20,900 1,260 Climbing Memphis Center
05:15AM 34.8117 -91.3411 260° West 411 473 22,100 1,140 Climbing Memphis Center
05:16AM 34.7894 -91.4800 259° West 421 484 23,200 1,140 Climbing Memphis Center
05:17AM 34.7653 -91.6236 258° West 432 497 24,400 1,020 Climbing Memphis Center
05:18AM 34.7428 -91.7622 259° West 432 497 25,300 1,200 Climbing Memphis Center
05:19AM 34.7203 -91.9061 259° West 432 497 26,800 1,380 Climbing Memphis Center
05:20AM 34.6975 -92.0494 259° West 432 497 28,100 1,020 Climbing Memphis Center
05:21AM 34.6769 -92.1881 260° West 432 497 28,900 900 Climbing Memphis Center
05:22AM 34.6664 -92.3367 265° West 432 497 29,900 1,080 Climbing Memphis Center
05:23AM 34.6536 -92.4778 264° West 432 497 31,100 1,080 Climbing Memphis Center
05:24AM 34.6425 -92.6214 265° West 432 497 32,100 960 Climbing Memphis Center
05:25AM 34.6339 -92.7600 266° West 422 486 33,100 840 Climbing Memphis Center
05:26AM 34.6225 -92.9036 265° West 422 486 33,800 420 Climbing Memphis Center
05:27AM 34.6094 -93.0394 263° West 422 486 34,000 60 Climbing Memphis Center
05:28AM 34.6000 -93.1806 265° West 422 486 34,000  Level Memphis Center
05:33AM 34.5380 -93.9280 265° West 400 460 34,000  Level FlightAware
05:34AM 34.5290 -94.0190 263° West 400 460 34,000  Level FlightAware
05:35AM 34.5200 -94.1140 263° West 400 460 34,000  Level FlightAware
05:36AM 34.5090 -94.2620 265° West 401 461 34,000  Level FlightAware
05:36AM 34.5050 -94.3000 263° West 401 461 34,000  Level FlightAware
05:37AM 34.4950 -94.3950 263° West 401 461 34,000  Level FlightAware
05:38AM 34.4870 -94.4710 263° West 401 461 34,000  Level FlightAware
05:38AM 34.3500 -94.4820 184° South 406 467 34,000  Level FlightAware
05:39AM 34.3000 -94.5360 222° Southwest 413 475 34,000  Level FlightAware
05:40AM 34.2120 -94.6280 221° Southwest 416 479 34,000  Level FlightAware
05:40AM 34.1470 -94.7000 223° Southwest 421 484 34,000  Level FlightAware
05:41AM 34.1000 -94.7510 222° Southwest 421 484 34,000  Level FlightAware
05:42AM 34.0240 -94.8350 223° Southwest 422 486 34,000  Level FlightAware
05:42AM 33.9660 -94.9010 223° Southwest 420 483 34,000  Level FlightAware
05:43AM 33.9120 -94.9790 230° Southwest 408 470 34,000  Level FlightAware
05:44AM 33.9000 -95.0660 261° West 399 459 34,000  Level FlightAware
05:45AM 33.9200 -95.1500 286° West 403 464 34,000  Level FlightAware
05:45AM 33.9500 -95.2350 293° West 404 465 34,000  Level FlightAware
05:46AM 33.9840 -95.3280 294° West 406 467 34,000  Level FlightAware
05:47AM 34.0370 -95.4100 308° West 438 504 34,000  Level FlightAware
05:47AM 34.1150 -95.4490 338° Northwest 480 552 34,000  Level FlightAware
05:48AM 34.2430 -95.4350 North 513 590 34,000  Level FlightAware
05:49AM 34.3410 -95.4220 North 490 564 34,000  Level FlightAware
05:50AM 34.4270 -95.4560 342° North 444 511 34,000  Level FlightAware
05:50AM 34.4870 -95.5320 314° West 408 470 34,000  Level FlightAware
05:51AM 34.5120 -95.6130 291° West 386 444 34,000  Level FlightAware
05:52AM 34.5230 -95.6920 280° West 371 427 34,000  Level FlightAware
05:53AM 34.5380 -95.7860 281° West 370 426 34,000  Level FlightAware
05:53AM 34.5490 -95.8700 279° West 375 432 34,000  Level FlightAware
05:54AM 34.5630 -95.9660 280° West 377 434 34,000  Level FlightAware
05:55AM 34.5750 -96.0490 280° West 381 438 34,000  Level FlightAware
05:55AM 34.5860 -96.1340 279° West 382 440 34,000  Level FlightAware
05:56AM 34.5930 -96.2220 276° West 371 427 34,000  Level FlightAware
05:57AM 34.5990 -96.3180 274° West 378 435 34,000  Level FlightAware
05:57AM 34.6110 -96.4040 280° West 377 434 34,000  Level FlightAware
05:58AM 34.6230 -96.4890 280° West 376 433 34,000  Level FlightAware
05:59AM 34.6360 -96.5810 280° West 376 433 34,000  Level FlightAware
06:00AM 34.6480 -96.6640 280° West 375 432 34,000  Level FlightAware
06:00AM 34.6590 -96.7470 279° West 373 429 34,000  Level FlightAware
06:01AM 34.6720 -96.8400 280° West 372 428 34,000  Level FlightAware
06:02AM 34.6830 -96.9230 279° West 374 430 34,000  Level FlightAware
06:02AM 34.6960 -97.0180 279° West 375 432 34,000  Level FlightAware
06:03AM 34.7070 -97.1010 279° West 373 429 34,000  Level FlightAware
06:04AM 34.7180 -97.1840 279° West 371 427 34,000  Level FlightAware
06:04AM 34.7300 -97.2740 279° West 369 425 34,000  Level FlightAware
06:05AM 34.7420 -97.3580 280° West 368 423 34,000  Level FlightAware
06:06AM 34.7540 -97.4500 279° West 366 421 34,000  Level FlightAware
06:07AM 34.7630 -97.5230 279° West 364 419 34,000  Level FlightAware
06:07AM 34.7760 -97.6200 279° West 362 417 34,000  Level FlightAware
06:08AM 34.7860 -97.7000 279° West 363 418 34,000  Level FlightAware
06:09AM 34.7970 -97.7810 279° West 364 419 34,000  Level FlightAware
06:09AM 34.8060 -97.8520 279° West 364 419 34,000  Level FlightAware
06:10AM 34.8190 -97.9580 279° West 367 422 34,000  Level FlightAware
06:11AM 34.8270 -98.0210 279° West 368 423 34,000  Level FlightAware
06:11AM 34.8390 -98.1180 279° West 368 423 34,000  Level FlightAware
06:12AM 34.8530 -98.2320 279° West 369 425 34,000  Level FlightAware
06:13AM 34.8620 -98.3020 279° West 369 425 34,000  Level FlightAware
06:14AM 34.8700 -98.3720 278° West 369 425 34,000  Level FlightAware
06:14AM 34.8780 -98.4420 278° West 369 425 34,000  Level FlightAware
06:16AM 34.9040 -98.6390 279° West 358 412 34,000  Level FlightAware
06:16AM 34.9120 -98.7070 278° West 358 412 34,000  Level FlightAware
06:17AM 34.9150 -98.7820 273° West 354 407 34,000  Level FlightAware
06:18AM 34.9150 -98.8630 270° West 354 407 34,000  Level FlightAware
06:18AM 34.9150 -98.9480 270° West 354 407 34,000  Level FlightAware
06:19AM 34.9150 -99.0160 270° West 354 407 34,000  Level FlightAware
06:20AM 34.9200 -99.1700 272° West 370 426 34,000  Level FlightAware
06:21AM 34.9200 -99.2410 270° West 370 426 34,000  Level FlightAware
06:21AM 34.9220 -99.3370 271° West 368 423 34,000  Level FlightAware
06:22AM 34.9220 -99.4070 270° West 368 423 34,000  Level FlightAware
06:23AM 34.9220 -99.4950 270° West 368 423 34,000  Level FlightAware
06:24AM 34.9220 -99.5660 270° West 368 423 34,000  Level FlightAware
06:24AM 34.9220 -99.6370 270° West 368 423 34,000  Level FlightAware
06:25AM 34.9220 -99.7070 270° West 368 423 34,000  Level FlightAware
06:26AM 34.9220 -99.7960 270° West 368 423 34,000  Level FlightAware
06:26AM 34.9220 -99.8660 270° West 368 423 34,000  Level FlightAware
06:27AM 34.9220 -99.9370 270° West 368 423 34,000  Level FlightAware
06:28AM 34.9220 -100.0070 270° West 368 423 34,000  Level FlightAware
06:28AM 34.9220 -100.0780 270° West 368 423 34,000  Level FlightAware
06:29AM 34.9220 -100.1660 270° West 368 423 34,000  Level FlightAware
06:30AM 34.9220 -100.2370 270° West 368 423 34,000  Level FlightAware
06:31AM 34.9220 -100.3070 270° West 368 423 34,000  Level FlightAware
06:32AM 34.9297 -100.6022 270° West 352 405 34,000  Level Albuquerque Center
06:33AM 34.9292 -100.7239 270° West 357 411 34,000  Level Albuquerque Center
06:34AM 34.9300 -100.8450 271° West 358 412 34,000  Level Albuquerque Center
06:35AM 34.9286 -100.9642 269° West 354 407 34,000  Level Albuquerque Center
06:36AM 34.9283 -101.0842 270° West 353 406 34,000  Level Albuquerque Center
06:37AM 34.9269 -101.2042 269° West 354 407 34,000  Level Albuquerque Center
06:38AM 34.9258 -101.3242 269° West 354 407 34,000  Level Albuquerque Center
06:39AM 34.9256 -101.4444 270° West 353 406 34,000  Level Albuquerque Center
06:40AM 34.9239 -101.5658 269° West 355 409 34,000  Level Albuquerque Center
06:41AM 34.9236 -101.6886 270° West 358 412 34,000  Level Albuquerque Center
06:42AM 34.9217 -101.8131 269° West 363 418 34,100  Climbing Albuquerque Center
06:43AM 34.9203 -101.9383 269° West 367 422 34,000  Descending Albuquerque Center
06:44AM 34.9194 -102.0622 270° West 365 420 34,100  Climbing Albuquerque Center
06:45AM 34.9175 -102.1883 269° West 369 425 34,000 -60 Descending Albuquerque Center
06:46AM 34.9158 -102.3119 269° West 366 421 34,000 240 Level Albuquerque Center
06:47AM 34.9139 -102.4358 269° West 365 420 34,500 480 Climbing Albuquerque Center
06:48AM 34.9128 -102.5597 269° West 366 421 35,000 600 Climbing Albuquerque Center
06:49AM 34.9100 -102.6756 268° West 365 420 35,700 480 Climbing Albuquerque Center
06:50AM 34.9075 -102.8033 269° West 371 427 36,000 120 Climbing Albuquerque Center
06:51AM 34.9056 -102.9319 269° West 375 432 36,000  Level Albuquerque Center
06:52AM 34.9025 -103.0606 268° West 377 434 36,000  Level Albuquerque Center
06:53AM 34.8994 -103.1889 268° West 376 433 36,000  Level Albuquerque Center
06:54AM 34.8978 -103.3172 269° West 376 433 36,000  Level Albuquerque Center
06:55AM 34.8944 -103.4456 268° West 376 433 36,000  Level Albuquerque Center
06:56AM 34.8922 -103.5750 269° West 377 434 36,000  Level Albuquerque Center
06:57AM 34.8872 -103.7039 267° West 377 434 36,000  Level Albuquerque Center
06:58AM 34.8844 -103.8325 269° West 376 433 36,000  Level Albuquerque Center
06:59AM 34.8814 -103.9608 268° West 375 432 36,000  Level Albuquerque Center
07:00AM 34.8775 -104.0900 268° West 376 433 36,000  Level Albuquerque Center
07:01AM 34.8722 -104.2178 267° West 373 429 36,000  Level Albuquerque Center
07:02AM 34.8694 -104.3239 268° West 372 428 36,000  Level Albuquerque Center
07:03AM 34.8658 -104.4514 268° West 371 427 36,000  Level Albuquerque Center
07:04AM 34.8611 -104.5789 267° West 371 427 36,000  Level Albuquerque Center
07:05AM 34.8581 -104.7081 268° West 376 433 36,000  Level Albuquerque Center
07:06AM 34.8528 -104.8367 267° West 376 433 36,000  Level Albuquerque Center
07:07AM 34.8492 -104.9664 268° West 378 435 36,000  Level Albuquerque Center
07:08AM 34.8444 -105.0939 267° West 376 433 36,000  Level Albuquerque Center
07:14AM 34.8140 -105.8150 267° West 374 430 36,000  Level FlightAware
07:14AM 34.8110 -105.8960 267° West 366 421 36,000  Level FlightAware
07:15AM 34.8070 -105.9850 267° West 359 413 36,000  Level FlightAware
07:16AM 34.8030 -106.0580 266° West 363 418 36,000  Level FlightAware
07:16AM 34.7990 -106.1510 267° West 365 420 36,000  Level FlightAware
07:17AM 34.7960 -106.2310 267° West 366 421 36,000 60 Level FlightAware
07:18AM 34.7910 -106.3250 266° West 368 423 36,100  Climbing FlightAware
07:18AM 34.7870 -106.4090 267° West 378 435 36,000 -120 Descending FlightAware
07:19AM 34.7820 -106.5090 267° West 380 437 36,000 60 Level FlightAware
07:20AM 34.7780 -106.5930 267° West 382 440 36,100 60 Climbing FlightAware
07:21AM 34.7730 -106.6890 266° West 380 437 36,100 -120 Level FlightAware
07:21AM 34.7690 -106.7720 267° West 377 434 36,000 -120 Descending FlightAware
07:22AM 34.7640 -106.8700 266° West 377 434 36,000  Level FlightAware
07:23AM 34.7590 -106.9540 266° West 375 432 36,000  Level FlightAware
07:23AM 34.7550 -107.0390 267° West 376 433 36,000  Level FlightAware
07:24AM 34.7500 -107.1230 266° West 372 428 36,000  Level FlightAware
07:25AM 34.7460 -107.2120 267° West 372 428 36,000  Level FlightAware
07:25AM 34.7410 -107.2900 266° West 372 428 36,000  Level FlightAware
07:26AM 34.7360 -107.3820 266° West 377 434 36,000  Level FlightAware
07:27AM 34.7310 -107.4800 266° West 380 437 36,000 60 Level FlightAware
07:28AM 34.7250 -107.5740 266° West 380 437 36,100  Climbing FlightAware
07:28AM 34.7200 -107.6590 266° West 378 435 36,000 -120 Descending FlightAware
07:29AM 34.7140 -107.7560 266° West 375 432 36,000  Level FlightAware
07:30AM 34.7090 -107.8420 266° West 374 430 36,000  Level FlightAware
07:30AM 34.7040 -107.9230 266° West 380 437 36,000 60 Level FlightAware
07:31AM 34.6980 -108.0210 266° West 381 438 36,100  Climbing FlightAware
07:32AM 34.6930 -108.1060 266° West 378 435 36,000 -120 Descending FlightAware
07:32AM 34.6880 -108.1900 266° West 375 432 36,000  Level FlightAware
07:33AM 34.6820 -108.2830 266° West 376 433 36,000  Level FlightAware
07:34AM 34.6760 -108.3690 265° West 377 434 36,000  Level FlightAware
07:35AM 34.6700 -108.4640 266° West 382 440 36,000  Level FlightAware
07:35AM 34.6640 -108.5510 265° West 388 447 36,000  Level FlightAware
07:36AM 34.6580 -108.6490 266° West 392 451 36,000 60 Level FlightAware
07:37AM 34.6520 -108.7350 265° West 395 455 36,100  Climbing FlightAware
07:37AM 34.6450 -108.8290 265° West 395 455 36,000 -120 Descending FlightAware
07:38AM 34.6390 -108.9230 266° West 395 455 36,000  Level FlightAware
07:39AM 34.6330 -108.9990 265° West 395 455 36,000  Level FlightAware
07:40AM 34.6280 -109.0740 265° West 395 455 36,000  Level FlightAware
07:40AM 34.6210 -109.1680 265° West 395 455 36,000  Level FlightAware
07:41AM 34.6160 -109.2430 265° West 395 455 36,000  Level FlightAware
07:42AM 34.6100 -109.3180 264° West 395 455 36,000  Level FlightAware
07:42AM 34.6050 -109.3940 265° West 395 455 36,000  Level FlightAware
07:43AM 34.5990 -109.4690 264° West 395 455 36,000  Level FlightAware
07:44AM 34.5930 -109.5630 266° West 395 455 36,000  Level FlightAware
07:45AM 34.5870 -109.6380 264° West 395 455 36,000  Level FlightAware
07:45AM 34.5820 -109.7130 265° West 395 455 36,000  Level FlightAware
07:46AM 34.5760 -109.7880 264° West 395 455 36,000  Level FlightAware
07:47AM 34.5710 -109.8630 265° West 395 455 36,000  Level FlightAware
07:51AM 34.5120 -110.5980 265° West 391 450 36,000  Level FlightAware
07:52AM 34.5050 -110.6790 264° West 392 451 36,000  Level FlightAware
07:52AM 34.4970 -110.7690 264° West 390 449 36,000  Level FlightAware
07:53AM 34.4910 -110.8510 265° West 389 448 36,000  Level FlightAware
07:54AM 34.4840 -110.9310 264° West 387 445 36,000  Level FlightAware
07:54AM 34.4740 -111.0340 263° West 387 445 36,000  Level FlightAware
07:55AM 34.4660 -111.1330 264° West 384 442 36,000  Level FlightAware
07:56AM 34.4580 -111.2270 264° West 383 441 36,000  Level FlightAware
07:56AM 34.4530 -111.2840 264° West 383 441 36,000  Level FlightAware
07:57AM 34.4440 -111.3800 264° West 385 443 36,000  Level FlightAware
07:58AM 34.4320 -111.5140 264° West 388 447 36,000  Level FlightAware
07:59AM 34.4240 -111.6040 264° West 389 448 36,000  Level FlightAware
07:59AM 34.4150 -111.7020 264° West 391 450 36,000  Level FlightAware
08:00AM 34.4060 -111.7980 264° West 392 451 36,000  Level FlightAware
08:01AM 34.3980 -111.8870 264° West 393 452 36,000  Level FlightAware
08:01AM 34.3910 -111.9600 263° West 397 457 36,000 60 Level FlightAware
08:02AM 34.3830 -112.0460 264° West 400 460 36,100  Climbing FlightAware
08:03AM 34.3730 -112.1510 263° West 401 461 36,000 -120 Descending FlightAware
08:03AM 34.3640 -112.2400 263° West 404 465 36,000 60 Level FlightAware
08:04AM 34.3550 -112.3310 263° West 406 467 36,100  Climbing FlightAware
08:05AM 34.3450 -112.4290 263° West 399 459 36,000 -120 Descending FlightAware
08:05AM 34.3370 -112.5170 264° West 394 453 36,000  Level FlightAware
08:06AM 34.3270 -112.6180 263° West 393 452 36,000  Level FlightAware
08:07AM 34.3180 -112.7060 263° West 400 460 36,000  Level FlightAware
08:07AM 34.3090 -112.7930 263° West 404 465 36,000 60 Level FlightAware
08:08AM 34.2990 -112.8950 263° West 408 470 36,100  Climbing FlightAware
08:09AM 34.2900 -112.9830 263° West 410 472 36,000 -120 Descending FlightAware
08:10AM 34.2780 -113.0890 262° West 408 470 36,000  Level FlightAware
08:10AM 34.2690 -113.1800 263° West 410 472 36,000  Level FlightAware
08:11AM 34.2600 -113.2690 263° West 408 470 36,000  Level FlightAware
08:12AM 34.2490 -113.3700 263° West 401 461 36,000  Level FlightAware
08:12AM 34.2320 -113.4500 256° West 403 464 36,000  Level FlightAware
08:13AM 34.2030 -113.5550 252° West 405 466 36,000  Level FlightAware
08:14AM 34.1810 -113.6370 252° West 410 472 36,000  Level FlightAware
08:14AM 34.1650 -113.6930 251° West 413 475 36,000 60 Level FlightAware
08:15AM 34.1330 -113.8080 251° West 417 480 36,100  Climbing FlightAware
08:16AM 34.0970 -113.9360 251° West 417 480 36,100 -120 Level FlightAware
08:17AM 34.0730 -114.0200 251° West 409 471 36,000 -120 Descending FlightAware
08:18AM 34.0360 -114.1540 252° West 409 471 36,000  Level FlightAware
08:18AM 34.0230 -114.1990 251° West 408 470 36,000  Level FlightAware
08:19AM 33.9990 -114.2850 251° West 406 467 36,000  Level FlightAware
08:20AM 33.9610 -114.4190 251° West 406 467 36,000  Level FlightAware
08:21AM 33.9370 -114.5010 251° West 408 470 36,000  Level FlightAware
08:21AM 33.9130 -114.5870 251° West 408 470 36,000  Level FlightAware
08:22AM 33.8920 -114.6600 251° West 408 470 36,000  Level FlightAware
08:23AM 33.8610 -114.7680 251° West 416 479 36,000  Level FlightAware
08:24AM 33.8310 -114.8690 250° West 418 481 36,000  Level FlightAware
08:24AM 33.8080 -114.9430 250° West 418 481 36,000  Level FlightAware
08:25AM 33.7860 -115.0180 251° West 418 481 36,000 60 Level FlightAware
08:26AM 33.7530 -115.1390 252° West 422 486 36,100 60 Climbing FlightAware
08:26AM 33.7300 -115.2140 250° West 422 486 36,100  Level FlightAware
08:27AM 33.7020 -115.3080 250° West 422 486 36,100 -480 Level FlightAware
08:28AM 33.6460 -115.5010 251° West 426 490 35,300 -540 Descending FlightAware
08:29AM 33.6240 -115.5770 251° West 426 490 35,300  Level FlightAware
08:29AM 33.6010 -115.6530 250° West 426 490 35,300  Level FlightAware
08:30AM 33.5780 -115.7280 250° West 426 490 35,300  Level FlightAware
08:31AM 33.5550 -115.8040 250° West 426 490 35,300 -7,200 Level FlightAware
08:31AM 33.5100 -115.9540 250° West 402 463 25,100 -7,980 Descending FlightAware
08:32AM 33.4610 -116.0390 235° Southwest 399 459 23,400 -2,280 Descending FlightAware
08:33AM 33.4370 -116.0810 236° Southwest 397 457 22,500 -720 Descending FlightAware
08:34AM 33.3860 -116.1680 235° Southwest 397 457 22,500 -2,220 Level FlightAware
08:34AM 33.3120 -116.2660 228° Southwest 393 452 18,500 -2,820 Descending FlightAware
08:35AM 33.2240 -116.3160 205° Southwest 387 445 17,400 -720 Descending FlightAware
08:36AM 33.1690 -116.3470 205° Southwest 387 445 17,400  Level FlightAware
08:37AM 33.1140 -116.3770 205° Southwest 387 445 17,400  Level FlightAware
08:37AM 33.0590 -116.4080 205° Southwest 387 445 17,400  Level FlightAware
08:38AM 32.9900 -116.4460 205° Southwest 387 445 17,400  Level FlightAware
08:39AM 32.9340 -116.4770 205° Southwest 387 445 17,400 -2,400 Level FlightAware
08:41AM 32.7890 -116.6480 225° Southwest 8,500 -2,820 Descending FlightAware
08:43AM 32.7310 -116.7680 240° Southwest 274 315 6,700 -1,080 Descending FlightAware
08:48AM 32.7130 -117.1050 266° West 147 169 1,400 -1,020 Descending FlightAware
08:48AM 32.7180 -117.1250 287° West 144 166 1,000 -900 Descending FlightAware
08:49AM 32.7230 -117.1470 285° West 143 165 600 -600 Descending FlightAware
08:50AM 32.7300 -117.1770 286° West 142 163 300 -480 Descending FlightAware
08:58AM 32.7333 -117.1833 281° West  Level FlightAware Approximate